Time;durP1;ratioP1;P1;durP2;ratioP2;P2;SDS_P1;SDS_P2;PMS_P1;PMS_P2;Temp;Humidity;BMP_temperature;BMP_pressure;BME280_temperature;BME280_humidity;BME280_pressure;Samples;Min_cycle;Max_cycle;Signal;HPM_P1;HPM_P2
2023/07/25 00:00:34;;;;;;;2.47;1.27;;;;;;;16.90;74.30;99604.75;4806857;29;20429;-85
2023/07/25 00:03:37;;;;;;;5.07;1.50;;;;;;;17.01;73.74;99599.31;4806878;29;20054;-85
2023/07/25 00:06:43;;;;;;;4.93;1.70;;;;;;;17.09;73.35;99604.69;4807921;29;20519;-85
2023/07/25 00:09:47;;;;;;;4.70;1.25;;;;;;;16.85;74.43;99601.75;4807494;29;20544;-85
2023/07/25 00:12:53;;;;;;;2.63;1.30;;;;;;;16.67;75.40;99597.13;4807995;29;20112;-84
2023/07/25 00:15:56;;;;;;;3.17;1.38;;;;;;;16.65;75.42;99598.25;4807849;29;20081;-85
2023/07/25 00:19:02;;;;;;;2.63;1.27;;;;;;;16.57;75.97;99596.31;4808206;29;20126;-85
2023/07/25 00:22:05;;;;;;;2.55;1.33;;;;;;;16.47;76.73;99588.44;4807351;29;20069;-85
2023/07/25 00:25:09;;;;;;;1.92;1.20;;;;;;;16.49;76.64;99591.75;4807668;29;20574;-85
2023/07/25 00:28:13;;;;;;;2.85;1.23;;;;;;;16.61;75.99;99588.97;4807645;29;20524;-85
2023/07/25 00:31:16;;;;;;;2.75;1.40;;;;;;;16.65;74.98;99585.88;4806844;29;20050;-84
2023/07/25 00:34:19;;;;;;;3.47;1.48;;;;;;;16.57;75.71;99587.59;4807550;29;20050;-84
2023/07/25 00:37:22;;;;;;;2.40;1.30;;;;;;;16.59;76.17;99586.47;4807604;29;20050;-84
2023/07/25 00:40:27;;;;;;;3.85;1.52;;;;;;;16.54;77.17;99585.22;4807510;29;20058;-84
2023/07/25 00:43:34;;;;;;;3.92;1.40;;;;;;;16.58;77.02;99578.69;4806699;29;20108;-85
2023/07/25 00:46:41;;;;;;;3.20;1.40;;;;;;;16.60;76.79;99576.75;4806413;29;20097;-85
2023/07/25 00:49:45;;;;;;;5.05;1.45;;;;;;;16.55;77.47;99578.97;4806299;29;20532;-84
2023/07/25 00:52:48;;;;;;;3.00;1.40;;;;;;;16.66;76.84;99577.00;4807115;29;20135;-85
2023/07/25 00:56:01;;;;;;;4.47;1.83;;;;;;;16.85;75.94;99577.97;4806614;29;20475;-83
2023/07/25 00:59:04;;;;;;;2.65;1.20;;;;;;;16.68;76.64;99590.06;4806195;29;20125;-85
2023/07/25 01:02:09;;;;;;;3.15;1.30;;;;;;;16.58;77.21;99583.97;4805545;29;20080;-85
2023/07/25 01:05:13;;;;;;;4.15;1.23;;;;;;;16.54;77.57;99593.16;4806089;29;20049;-84
2023/07/25 01:08:18;;;;;;;2.83;1.30;;;;;;;16.45;77.67;99585.09;4806610;29;20096;-83
2023/07/25 01:11:23;;;;;;;3.17;1.40;;;;;;;16.54;77.09;99582.59;4805606;29;20053;-83
2023/07/25 01:14:26;;;;;;;2.72;1.48;;;;;;;16.41;77.67;99574.97;4806517;29;20053;-83
2023/07/25 01:17:30;;;;;;;4.47;1.42;;;;;;;16.48;77.31;99574.25;4806694;29;20046;-83
2023/07/25 01:20:35;;;;;;;6.68;2.20;;;;;;;16.56;76.85;99573.56;4805775;29;20050;-83
2023/07/25 01:23:41;;;;;;;4.45;1.25;;;;;;;16.40;77.21;99568.88;4806452;29;20132;-83
2023/07/25 01:26:45;;;;;;;2.80;1.40;;;;;;;16.44;76.88;99572.06;4805246;29;20052;-83
2023/07/25 01:29:48;;;;;;;3.63;1.42;;;;;;;16.45;77.25;99577.16;4805778;29;20163;-83
2023/07/25 01:32:52;;;;;;;5.95;1.30;;;;;;;16.40;77.50;99570.63;4806003;29;20524;-83
2023/07/25 01:35:55;;;;;;;2.85;1.42;;;;;;;16.46;77.19;99560.38;4805613;29;20050;-84
2023/07/25 01:38:59;;;;;;;2.35;1.55;;;;;;;16.31;78.02;99556.50;4806708;29;20108;-85
2023/07/25 01:42:02;;;;;;;2.58;1.67;;;;;;;16.38;77.83;99562.88;4806423;29;20067;-85
2023/07/25 01:45:06;;;;;;;4.03;1.50;;;;;;;16.46;77.14;99568.31;4805548;29;20046;-85
2023/07/25 01:48:10;;;;;;;3.22;1.63;;;;;;;16.53;76.21;99558.00;4806450;29;20078;-86
2023/07/25 01:51:13;;;;;;;5.97;1.50;;;;;;;16.62;75.94;99549.22;4806239;29;20184;-86
2023/07/25 01:54:19;;;;;;;2.97;1.45;;;;;;;16.65;76.50;99548.09;4806088;29;20130;-86
2023/07/25 01:57:22;;;;;;;3.17;1.52;;;;;;;16.59;76.61;99549.53;4804639;29;20113;-85
2023/07/25 02:00:26;;;;;;;3.13;1.48;;;;;;;16.48;77.55;99547.88;4794956;29;20065;-84
2023/07/25 02:03:29;;;;;;;2.85;1.48;;;;;;;16.48;77.78;99537.31;4806113;29;20529;-84
2023/07/25 02:06:33;;;;;;;2.80;1.05;;;;;;;16.45;78.07;99544.69;4805291;29;20045;-84
2023/07/25 02:09:36;;;;;;;3.60;1.38;;;;;;;16.33;78.54;99544.00;4805482;29;20421;-84
2023/07/25 02:12:39;;;;;;;2.83;1.50;;;;;;;16.33;78.69;99530.81;4805235;29;20049;-84
2023/07/25 02:15:42;;;;;;;2.85;1.65;;;;;;;16.46;78.24;99528.72;4794604;29;20430;-84
2023/07/25 02:18:46;;;;;;;3.67;1.77;;;;;;;16.57;77.37;99530.34;4805157;29;20540;-85
2023/07/25 02:21:49;;;;;;;5.10;1.75;;;;;;;16.51;77.64;99536.19;4794708;29;20535;-84
2023/07/25 02:24:55;;;;;;;2.72;1.33;;;;;;;16.27;79.33;99544.56;4794772;29;20057;-84
2023/07/25 02:28:01;;;;;;;4.35;1.48;;;;;;;16.39;78.79;99543.44;4805611;29;20045;-83
2023/07/25 02:31:05;;;;;;;5.40;1.40;;;;;;;16.47;77.58;99530.38;4805569;29;20049;-83
2023/07/25 02:34:10;;;;;;;2.60;1.42;;;;;;;16.44;77.79;99530.66;4794230;29;20088;-84
2023/07/25 02:37:17;;;;;;;2.42;1.30;;;;;;;16.30;79.47;99539.00;4804749;29;20065;-84
2023/07/25 02:40:23;;;;;;;4.55;1.30;;;;;;;16.21;80.04;99532.78;4793970;29;20475;-84
2023/07/25 02:43:27;;;;;;;3.00;1.40;;;;;;;16.32;78.97;99525.69;4794595;29;20520;-84
2023/07/25 02:46:32;;;;;;;3.65;1.50;;;;;;;16.21;79.18;99529.31;4804979;29;20129;-84
2023/07/25 02:49:36;;;;;;;3.70;1.58;;;;;;;16.33;77.88;99540.53;4805315;29;20050;-84
2023/07/25 02:52:45;;;;;;;7.93;1.70;;;;;;;16.38;77.46;99541.78;4804359;29;20130;-86
2023/07/25 02:55:48;;;;;;;2.60;1.33;;;;;;;16.45;77.43;99548.16;4805093;29;20054;-86
2023/07/25 02:58:52;;;;;;;3.15;1.48;;;;;;;16.48;77.70;99541.75;4794135;29;20108;-85
2023/07/25 03:01:56;;;;;;;3.13;1.73;;;;;;;16.37;78.79;99524.28;4793926;29;20050;-85
2023/07/25 03:05:00;;;;;;;3.25;1.80;;;;;;;16.39;79.21;99532.88;4794299;29;20576;-85
2023/07/25 03:08:03;;;;;;;3.45;1.50;;;;;;;16.42;79.21;99522.03;4804163;29;20575;-85
2023/07/25 03:11:09;;;;;;;2.97;1.40;;;;;;;16.45;78.81;99521.75;4804578;29;20525;-85
2023/07/25 03:14:12;;;;;;;2.78;1.40;;;;;;;16.55;78.22;99520.91;4804122;29;20429;-85
2023/07/25 03:17:16;;;;;;;6.07;1.60;;;;;;;16.56;78.37;99517.28;4804119;29;20042;-85
2023/07/25 03:20:19;;;;;;;2.72;1.58;;;;;;;16.51;78.69;99521.19;4804448;29;20119;-85
2023/07/25 03:23:25;;;;;;;3.28;1.83;;;;;;;16.38;79.15;99517.22;4804322;29;20120;-87
2023/07/25 03:27:14;;;;;;;2.35;1.38;;;;;;;16.28;80.18;99511.94;4805290;29;20077;-87
2023/07/25 03:31:12;;;;;;;2.40;1.48;;;;;;;16.24;80.46;99494.72;4786995;29;20571;-88
2023/07/25 03:35:06;;;;;;;2.80;1.65;;;;;;;16.20;80.79;99499.44;4808634;29;20082;-87
2023/07/25 03:38:11;;;;;;;2.70;1.48;;;;;;;16.12;81.24;99504.63;4808136;29;20467;-86
2023/07/25 03:41:15;;;;;;;4.88;1.70;;;;;;;16.27;80.75;99502.34;4807675;29;20057;-84
2023/07/25 03:44:20;;;;;;;3.92;1.75;;;;;;;16.41;79.70;99501.09;4807536;29;20049;-84
2023/07/25 03:47:23;;;;;;;3.13;1.45;;;;;;;16.43;78.88;99494.72;4807481;29;20107;-83
2023/07/25 03:50:26;;;;;;;3.13;1.50;;;;;;;16.52;78.64;99493.00;4807000;29;20126;-83
2023/07/25 03:53:30;;;;;;;3.92;1.55;;;;;;;16.60;78.39;99500.22;4807124;29;20092;-83
2023/07/25 03:56:33;;;;;;;6.97;1.65;;;;;;;16.49;79.17;99502.03;4812446;29;20378;-84
2023/07/25 03:59:37;;;;;;;6.63;2.65;;;;;;;16.57;78.90;99492.59;4825215;29;20065;-83
2023/07/25 04:02:40;;;;;;;4.57;2.05;;;;;;;16.52;79.80;99485.91;4813127;29;20049;-80
2023/07/25 04:05:43;;;;;;;4.93;1.55;;;;;;;16.37;80.78;99475.94;4824864;29;20527;-80
2023/07/25 04:08:47;;;;;;;5.72;2.10;;;;;;;16.32;81.49;99476.38;4824652;29;20112;-84
2023/07/25 04:11:51;;;;;;;5.25;1.85;;;;;;;16.34;81.22;99471.00;4813512;29;20073;-84
2023/07/25 04:14:54;;;;;;;2.75;1.80;;;;;;;16.30;81.05;99465.13;4824929;29;20057;-83
2023/07/25 04:17:58;;;;;;;4.10;1.67;;;;;;;16.27;81.44;99457.50;4813195;29;20054;-82
2023/07/25 04:21:01;;;;;;;3.47;1.83;;;;;;;16.29;81.90;99463.47;4824507;29;20192;-81
2023/07/25 04:24:05;;;;;;;6.47;1.95;;;;;;;16.19;82.22;99465.31;4824033;29;20527;-81
2023/07/25 04:27:09;;;;;;;3.28;1.73;;;;;;;16.20;82.14;99456.41;4824393;29;20049;-85
2023/07/25 04:30:12;;;;;;;4.63;1.92;;;;;;;16.24;81.75;99463.06;4823442;29;20078;-80
2023/07/25 04:33:17;;;;;;;4.55;1.90;;;;;;;16.22;81.77;99457.94;4824339;29;20361;-85
2023/07/25 04:36:22;;;;;;;3.45;1.80;;;;;;;16.25;82.07;99459.47;4824406;29;20049;-86
2023/07/25 04:39:25;;;;;;;3.75;2.15;;;;;;;16.31;81.76;99466.81;4823149;29;20144;-86
2023/07/25 04:42:28;;;;;;;6.45;1.90;;;;;;;16.47;81.10;99467.06;4812385;29;20054;-85
2023/07/25 04:45:32;;;;;;;3.50;1.83;;;;;;;16.50;81.27;99466.75;4812496;29;20535;-86
2023/07/25 04:48:35;;;;;;;4.18;1.88;;;;;;;16.53;81.23;99470.94;4823903;29;20160;-85
2023/07/25 04:51:39;;;;;;;2.50;1.67;;;;;;;16.64;80.74;99470.72;4823112;29;20577;-84
2023/07/25 04:54:43;;;;;;;4.13;1.83;;;;;;;16.54;81.59;99471.75;4821921;29;20084;-86
2023/07/25 04:57:50;;;;;;;3.63;1.90;;;;;;;16.45;81.87;99469.00;4820860;29;20097;-86
2023/07/25 05:00:56;;;;;;;3.33;1.83;;;;;;;16.35;82.57;99473.47;4822366;29;20437;-86
2023/07/25 05:04:03;;;;;;;4.43;2.25;;;;;;;16.40;82.58;99476.53;4822985;29;20508;-86
2023/07/25 05:07:11;;;;;;;3.72;1.98;;;;;;;16.37;82.48;99483.88;4813066;29;20408;-86
2023/07/25 05:10:41;;;;;;;4.15;1.75;;;;;;;16.44;82.23;99477.06;4824040;29;20053;-86
2023/07/25 05:13:52;;;;;;;3.22;1.90;;;;;;;16.43;82.30;99478.00;4823006;29;20073;-86
2023/07/25 05:17:00;;;;;;;6.60;2.03;;;;;;;16.46;82.60;99481.22;4812418;29;20072;-86
2023/07/25 05:25:16;;;;;;;2.40;1.40;;;;;;;16.71;81.01;99495.56;4823378;29;20049;-87
2023/07/25 05:29:38;;;;;;;4.65;2.20;;;;;;;16.81;80.82;99495.56;4823512;29;20152;-87
2023/07/25 05:33:57;;;;;;;7.65;2.10;;;;;;;16.65;82.05;99495.31;4821785;29;20103;-88
2023/07/25 05:38:15;;;;;;;4.28;1.80;;;;;;;16.61;81.87;99493.94;4822918;29;20441;-88
2023/07/25 05:42:33;;;;;;;5.72;1.75;;;;;;;16.56;82.38;99485.63;4822507;29;20069;-87
2023/07/25 05:46:08;;;;;;;3.65;2.15;;;;;;;16.68;82.28;99495.84;4821342;29;20041;-86
2023/07/25 05:49:14;;;;;;;4.82;2.63;;;;;;;16.68;82.47;99495.84;4810439;29;20144;-86
2023/07/25 05:52:17;;;;;;;5.05;2.20;;;;;;;16.60;82.99;99493.13;4820925;29;20118;-86
2023/07/25 05:55:24;;;;;;;3.80;2.78;;;;;;;16.67;82.93;99491.56;4821466;29;20057;-86
2023/07/25 05:58:33;;;;;;;5.05;2.42;;;;;;;16.77;82.44;99498.66;4812484;29;20481;-85
2023/07/25 06:01:39;;;;;;;5.60;3.13;;;;;;;16.81;82.41;99498.19;4822566;29;20114;-85
2023/07/25 06:04:46;;;;;;;5.53;2.63;;;;;;;16.85;82.59;99490.84;4810836;29;20053;-86
2023/07/25 06:07:49;;;;;;;4.45;3.38;;;;;;;16.90;82.19;99491.22;4811319;29;20483;-86
2023/07/25 06:11:02;;;;;;;7.57;3.65;;;;;;;16.71;84.55;99492.09;4820969;29;20052;-87
2023/07/25 06:20:11;;;;;;;4.75;3.58;;;;;;;16.65;85.22;99513.78;4783866;29;20142;-85
2023/07/25 06:24:13;;;;;;;9.02;4.40;;;;;;;16.55;87.19;99510.34;4784039;29;20536;-85
2023/07/25 06:28:28;;;;;;;5.80;4.60;;;;;;;16.46;88.61;99510.25;4820792;29;20466;-85
2023/07/25 06:32:38;;;;;;;;;;;;;;;;;;;;;
2023/07/25 06:41:17;;;;;;;14.32;8.90;;;;;;;16.40;91.13;99529.28;4822740;29;20053;-85
2023/07/25 06:46:19;;;;;;;11.18;8.70;;;;;;;16.38;91.76;99525.94;4766231;30;20181;-85
2023/07/25 06:50:21;;;;;;;21.65;9.68;;;;;;;16.38;92.46;99523.31;4783346;29;20111;-85
2023/07/25 06:54:00;;;;;;;13.05;9.85;;;;;;;16.40;92.78;99528.44;4783548;29;20124;-85
2023/07/25 07:00:49;;;;;;;9.40;8.52;;;;;;;16.48;91.69;99536.47;4765813;30;20059;-85
2023/07/25 07:04:39;;;;;;;12.50;8.63;;;;;;;16.16;92.43;99531.53;4757812;30;20128;-85
2023/07/25 07:08:19;;;;;;;11.05;8.60;;;;;;;16.20;91.48;99527.63;4780390;29;20065;-84
2023/07/25 07:17:18;;;;;;;16.17;9.25;;;;;;;16.23;93.13;99538.72;4740285;29;20607;-86
2023/07/25 07:20:22;;;;;;;10.30;8.18;;;;;;;16.13;92.92;99537.91;4807726;29;20187;-87
2023/07/25 07:24:21;;;;;;;11.88;8.68;;;;;;;16.01;94.08;99539.84;4807110;29;20108;-87
2023/07/25 07:27:44;;;;;;;11.32;8.80;;;;;;;16.03;94.19;99539.72;4807005;29;20066;-84
2023/07/25 07:30:49;;;;;;;13.13;9.00;;;;;;;16.07;94.72;99537.63;4807404;29;20441;-84
2023/07/25 07:34:17;;;;;;;11.60;8.75;;;;;;;16.06;94.20;99547.34;4807219;29;20050;-80
2023/07/25 07:37:20;;;;;;;11.40;9.27;;;;;;;16.03;94.97;99545.00;4807311;29;20418;-85
2023/07/25 07:40:24;;;;;;;9.35;8.43;;;;;;;16.17;93.79;99543.72;4806400;29;20049;-83
2023/07/25 07:43:27;;;;;;;10.90;8.52;;;;;;;16.13;93.05;99547.63;4806774;29;20524;-85
2023/07/25 07:46:33;;;;;;;11.32;8.00;;;;;;;16.04;93.28;99544.03;4807224;29;20046;-85
2023/07/25 07:49:36;;;;;;;9.55;7.47;;;;;;;15.99;92.92;99543.63;4805728;29;20069;-81
2023/07/25 07:52:43;;;;;;;7.88;6.60;;;;;;;15.89;93.04;99540.97;4807109;29;20161;-83
2023/07/25 07:55:46;;;;;;;12.07;7.30;;;;;;;15.90;93.87;99550.56;4806391;29;20085;-83
2023/07/25 07:58:50;;;;;;;13.40;7.65;;;;;;;15.87;94.72;99550.81;4824436;29;20057;-83
2023/07/25 08:01:54;;;;;;;10.13;7.38;;;;;;;15.86;94.47;99554.44;4825218;29;20094;-84
2023/07/25 08:04:57;;;;;;;8.35;7.10;;;;;;;15.82;95.33;99539.84;4813727;29;20076;-82
2023/07/25 08:08:04;;;;;;;10.63;6.95;;;;;;;15.82;95.23;99537.22;4824408;29;20526;-83
2023/07/25 08:11:15;;;;;;;10.68;8.00;;;;;;;15.86;95.09;99541.25;4825113;29;20488;-86
2023/07/25 08:14:45;;;;;;;10.10;7.40;;;;;;;15.87;95.10;99536.81;4824683;29;20061;-85
2023/07/25 08:18:46;;;;;;;15.63;7.70;;;;;;;15.78;95.58;99538.47;4824231;29;20095;-86
2023/07/25 08:22:11;;;;;;;13.00;7.82;;;;;;;15.84;95.37;99545.00;4825142;29;20352;-82
2023/07/25 08:25:17;;;;;;;9.07;8.00;;;;;;;16.00;94.36;99535.56;4813816;29;20492;-81
2023/07/25 08:28:22;;;;;;;10.18;7.97;;;;;;;15.91;95.07;99540.81;4829878;29;20107;-82
2023/07/25 08:31:32;;;;;;;10.95;8.45;;;;;;;15.91;95.17;99538.19;4825232;29;20049;-78
2023/07/25 08:34:39;;;;;;;8.65;7.45;;;;;;;15.88;95.94;99549.84;4824304;29;20073;-80
2023/07/25 08:37:43;;;;;;;8.10;7.22;;;;;;;15.93;94.77;99537.09;4824283;29;20063;-81
2023/07/25 08:41:02;;;;;;;12.85;6.68;;;;;;;15.99;94.40;99526.00;4824614;29;21025;-82
2023/07/25 08:44:10;;;;;;;10.80;7.40;;;;;;;16.07;93.89;99511.28;4824151;29;20112;-83
2023/07/25 08:47:26;;;;;;;12.20;7.93;;;;;;;16.22;93.42;99499.31;4826968;29;20429;-87
2023/07/25 08:50:36;;;;;;;7.88;6.72;;;;;;;16.28;92.99;99514.59;4841705;29;20168;-85
2023/07/25 08:54:36;;;;;;;8.35;5.75;;;;;;;16.35;92.48;99535.94;4814784;29;20109;-80
2023/07/25 08:57:42;;;;;;;7.15;5.43;;;;;;;16.39;91.48;99535.50;4822059;29;20433;-78
2023/07/25 09:00:50;;;;;;;5.78;4.65;;;;;;;16.46;90.40;99534.00;4823621;29;20112;-79
2023/07/25 09:04:02;;;;;;;6.90;3.70;;;;;;;16.67;89.12;99515.31;4823978;29;20409;-84
2023/07/25 09:07:08;;;;;;;8.70;4.38;;;;;;;16.83;88.97;99525.31;4824270;29;20194;-81
2023/07/25 09:10:11;;;;;;;6.95;3.92;;;;;;;16.99;88.90;99535.25;4824142;29;20540;-78
2023/07/25 09:13:19;;;;;;;9.73;4.22;;;;;;;17.09;86.59;99537.84;4823710;29;20058;-88
2023/07/25 09:16:23;;;;;;;5.88;3.05;;;;;;;17.05;83.91;99549.69;4823591;29;20069;-79
2023/07/25 09:19:26;;;;;;;4.88;3.17;;;;;;;17.19;83.10;99542.09;4823866;29;20057;-83
2023/07/25 09:22:35;;;;;;;6.63;3.95;;;;;;;17.32;85.30;99551.50;4823567;29;20199;-83
2023/07/25 09:25:44;;;;;;;4.38;2.80;;;;;;;17.30;86.05;99551.66;4810855;29;20111;-87
2023/07/25 09:28:53;;;;;;;5.78;2.83;;;;;;;17.29;85.57;99555.25;4823297;29;20046;-83
2023/07/25 09:32:24;;;;;;;3.85;2.45;;;;;;;17.22;83.33;99548.91;4823582;29;20056;-86
2023/07/25 09:35:45;;;;;;;3.28;2.30;;;;;;;17.19;85.78;99551.84;4823293;29;20057;-79
2023/07/25 09:38:55;;;;;;;4.30;2.30;;;;;;;17.05;84.32;99549.69;4822249;29;20115;-71
2023/07/25 09:42:00;;;;;;;7.40;3.17;;;;;;;17.24;86.33;99560.16;4821118;29;20188;-71
2023/07/25 09:45:08;;;;;;;5.28;2.45;;;;;;;17.36;84.73;99553.72;4822246;29;20086;-71
2023/07/25 09:48:41;;;;;;;6.22;2.60;;;;;;;17.09;82.20;99558.97;4823508;29;20049;-72
2023/07/25 09:52:22;;;;;;;3.80;2.78;;;;;;;17.36;82.41;99564.28;4823629;29;20443;-72
2023/07/25 09:55:28;;;;;;;3.95;2.63;;;;;;;17.51;82.56;99561.13;4811159;29;20089;-71
2023/07/25 09:58:42;;;;;;;4.20;2.50;;;;;;;17.47;80.73;99562.41;4793753;29;20147;-71
2023/07/25 10:01:46;;;;;;;4.60;2.38;;;;;;;17.56;81.98;99561.53;4804788;29;20109;-72
2023/07/25 10:05:13;;;;;;;6.25;2.40;;;;;;;17.80;81.39;99555.66;4805015;29;20146;-73
2023/07/25 10:08:24;;;;;;;4.25;2.53;;;;;;;17.79;79.79;99544.28;4803778;29;20062;-71
2023/07/25 10:11:31;;;;;;;3.55;2.67;;;;;;;18.09;78.43;99550.16;4804035;29;20553;-84
2023/07/25 10:14:44;;;;;;;6.82;2.83;;;;;;;17.98;77.71;99559.16;4794868;29;20105;-82
2023/07/25 10:18:24;;;;;;;6.35;3.30;;;;;;;17.93;79.83;99560.59;4804478;29;20116;-84
2023/07/25 10:21:50;;;;;;;6.35;3.20;;;;;;;18.12;78.11;99560.44;4793556;29;20049;-82
2023/07/25 10:24:56;;;;;;;5.20;3.38;;;;;;;17.89;77.64;99555.59;4803956;29;20188;-83
2023/07/25 10:28:03;;;;;;;3.78;2.50;;;;;;;18.00;76.82;99557.22;4804446;29;20050;-83
2023/07/25 10:31:24;;;;;;;5.35;3.10;;;;;;;17.81;79.92;99552.91;4804005;29;20115;-88
2023/07/25 10:35:01;;;;;;;6.55;3.20;;;;;;;18.23;77.34;99546.97;4804603;29;20058;-87
2023/07/25 10:38:52;;;;;;;10.85;2.83;;;;;;;18.46;74.66;99549.13;4804796;29;20178;-78
2023/07/25 10:41:55;;;;;;;4.85;2.80;;;;;;;18.73;73.93;99549.03;4803977;29;20119;-76
2023/07/25 10:44:58;;;;;;;4.30;2.65;;;;;;;18.94;76.88;99545.16;4802257;29;20045;-76
2023/07/25 10:48:02;;;;;;;4.45;2.30;;;;;;;18.95;71.25;99546.81;4803310;29;20050;-76
2023/07/25 10:51:07;;;;;;;4.10;2.58;;;;;;;18.74;71.29;99555.97;4803888;29;20065;-76
2023/07/25 10:54:14;;;;;;;4.40;2.47;;;;;;;19.06;68.90;99554.50;4803848;29;20390;-76
2023/07/25 10:57:22;;;;;;;4.47;2.40;;;;;;;18.93;70.35;99548.81;4803644;29;20530;-74
2023/07/25 11:00:35;;;;;;;4.72;2.35;;;;;;;18.53;68.98;99540.41;4803397;29;20058;-77
2023/07/25 11:03:39;;;;;;;4.75;2.53;;;;;;;18.60;67.87;99559.16;4803914;29;20149;-78
2023/07/25 11:06:43;;;;;;;5.93;2.53;;;;;;;18.77;67.27;99555.66;4804302;29;20100;-78
2023/07/25 11:09:46;;;;;;;3.53;2.00;;;;;;;18.88;68.73;99551.91;4792927;29;20045;-76
2023/07/25 11:13:08;;;;;;;4.50;2.33;;;;;;;19.01;65.14;99562.91;4803857;29;20144;-78
2023/07/25 11:16:12;;;;;;;4.13;2.80;;;;;;;18.91;67.24;99564.00;4803646;29;20073;-78
2023/07/25 11:19:16;;;;;;;5.60;2.83;;;;;;;19.02;66.30;99566.41;4803985;29;20116;-79
2023/07/25 11:22:19;;;;;;;5.18;2.40;;;;;;;19.26;66.06;99570.97;4803213;29;20108;-80
2023/07/25 11:25:22;;;;;;;5.90;2.92;;;;;;;18.59;65.42;99578.69;4804082;29;20475;-86
2023/07/25 11:28:32;;;;;;;8.90;2.80;;;;;;;18.39;66.39;99574.56;4804646;29;20194;-79
2023/07/25 11:31:42;;;;;;;5.38;2.90;;;;;;;18.66;67.94;99569.13;4803969;29;20054;-82
2023/07/25 11:35:09;;;;;;;7.20;3.38;;;;;;;18.63;66.90;99573.91;4792463;29;20085;-80
2023/07/25 11:38:14;;;;;;;6.20;2.95;;;;;;;17.86;66.49;99592.09;4804242;29;20058;-80
2023/07/25 11:41:17;;;;;;;6.55;2.88;;;;;;;17.88;70.08;99590.97;4803677;29;20061;-83
2023/07/25 11:44:27;;;;;;;5.40;2.20;;;;;;;17.85;66.97;99583.34;4803753;29;20050;-86
2023/07/25 11:47:31;;;;;;;4.70;2.22;;;;;;;18.02;66.44;99586.13;4803017;29;20050;-84
2023/07/25 11:50:42;;;;;;;4.57;2.25;;;;;;;18.01;66.34;99584.50;4806910;29;20153;-86
2023/07/25 11:53:50;;;;;;;5.28;2.30;;;;;;;17.37;67.25;99583.59;4814900;29;20062;-86
2023/07/25 11:57:18;;;;;;;6.38;2.15;;;;;;;17.42;66.47;99587.47;4818267;29;20125;-86
2023/07/25 12:05:07;;;;;;;4.43;2.00;;;;;;;17.40;64.46;99591.22;4839819;29;20048;-85
2023/07/25 12:08:54;;;;;;;6.88;2.15;;;;;;;17.35;63.80;99589.00;4843581;29;20523;-86
2023/07/25 12:12:56;;;;;;;5.90;2.20;;;;;;;17.70;63.90;99592.72;4831873;29;20113;-86
2023/07/25 12:16:02;;;;;;;8.63;2.75;;;;;;;18.03;63.02;99590.47;4806640;29;20112;-84
2023/07/25 12:19:10;;;;;;;4.57;2.03;;;;;;;18.25;62.17;99597.09;4806556;29;20582;-82
2023/07/25 12:22:41;;;;;;;5.55;2.20;;;;;;;18.50;62.94;99598.13;4807009;29;20089;-85
2023/07/25 12:25:46;;;;;;;7.00;2.20;;;;;;;18.94;62.14;99583.06;4806497;29;20496;-84
2023/07/25 12:28:58;;;;;;;6.53;2.17;;;;;;;19.05;60.61;99593.41;4795251;29;20077;-87
2023/07/25 12:32:34;;;;;;;7.32;2.33;;;;;;;18.93;59.24;99604.44;4806442;29;20776;-86
2023/07/25 12:35:37;;;;;;;4.07;1.83;;;;;;;18.93;57.79;99607.09;4806416;29;20544;-85
2023/07/25 12:39:10;;;;;;;5.43;1.90;;;;;;;18.75;56.05;99605.28;4806306;29;20064;-86
2023/07/25 12:42:14;;;;;;;8.10;2.47;;;;;;;19.03;56.53;99603.31;4806221;29;20145;-80
2023/07/25 12:45:17;;;;;;;7.30;1.90;;;;;;;19.57;55.13;99600.44;4806069;29;20073;-82
2023/07/25 12:52:33;;;;;;;6.32;1.70;;;;;;;20.13;47.75;99595.44;4805993;29;20073;-72
2023/07/25 12:55:37;;;;;;;6.80;1.70;;;;;;;20.26;46.52;99597.59;4805467;29;20564;-84
2023/07/25 12:58:41;;;;;;;5.95;1.45;;;;;;;19.87;46.58;99593.72;4786820;29;20055;-83
2023/07/25 13:01:44;;;;;;;6.38;1.35;;;;;;;20.23;47.21;99589.97;4788358;29;20597;-83
2023/07/25 13:04:47;;;;;;;4.55;1.50;;;;;;;20.01;45.78;99592.28;4787708;29;20057;-82
2023/07/25 13:08:16;;;;;;;4.28;1.33;;;;;;;19.57;48.03;99603.06;4787767;29;20088;-83
2023/07/25 13:11:19;;;;;;;3.60;1.25;;;;;;;19.45;47.41;99597.22;4787976;29;20102;-81
2023/07/25 13:14:23;;;;;;;4.55;1.75;;;;;;;20.16;49.49;99590.63;4787542;29;20108;-81
2023/07/25 13:17:27;;;;;;;4.70;1.77;;;;;;;20.80;48.23;99587.31;4787759;29;20082;-81
2023/07/25 13:20:31;;;;;;;3.85;1.23;;;;;;;21.14;45.58;99603.00;4786946;29;20108;-82
2023/07/25 13:23:35;;;;;;;4.00;1.30;;;;;;;20.41;47.24;99609.22;4787808;29;20229;-82
2023/07/25 13:26:38;;;;;;;4.40;1.50;;;;;;;19.94;47.43;99615.13;4787998;29;20117;-83
2023/07/25 13:29:41;;;;;;;3.75;1.13;;;;;;;19.76;48.06;99619.75;4787443;29;20517;-82
2023/07/25 13:32:45;;;;;;;7.00;1.38;;;;;;;19.47;49.34;99620.94;4776098;29;20128;-83
2023/07/25 13:35:50;;;;;;;3.53;1.45;;;;;;;19.62;49.34;99615.84;4787583;29;20105;-82
2023/07/25 13:38:56;;;;;;;2.70;1.13;;;;;;;19.29;49.93;99619.19;4787116;29;20128;-83
2023/07/25 13:41:59;;;;;;;4.50;1.63;;;;;;;19.09;50.06;99623.06;4787308;29;20104;-82
2023/07/25 13:45:03;;;;;;;5.47;1.50;;;;;;;19.36;50.82;99623.84;4787259;29;20065;-82
2023/07/25 13:48:12;;;;;;;5.15;1.50;;;;;;;19.39;49.84;99618.25;4787001;29;20070;-75
2023/07/25 13:51:15;;;;;;;7.03;1.58;;;;;;;19.51;49.14;99620.44;4786506;29;20120;-79
2023/07/25 13:54:19;;;;;;;5.35;1.30;;;;;;;19.36;49.14;99631.81;4786834;29;20148;-80
2023/07/25 13:57:23;;;;;;;4.28;1.73;;;;;;;19.58;49.32;99628.59;4785893;29;20565;-80
2023/07/25 14:00:26;;;;;;;4.78;1.40;;;;;;;19.20;49.69;99638.69;4786272;29;20142;-80
2023/07/25 14:03:30;;;;;;;3.92;1.30;;;;;;;19.11;50.93;99636.97;4786858;29;20054;-83
2023/07/25 14:06:34;;;;;;;4.03;1.27;;;;;;;19.31;50.67;99636.78;4786757;29;20053;-82
2023/07/25 14:09:37;;;;;;;3.67;1.45;;;;;;;18.99;50.40;99638.25;4786714;29;20047;-81
2023/07/25 14:12:41;;;;;;;7.35;1.60;;;;;;;18.80;50.27;99639.28;4786045;29;20055;-82
2023/07/25 14:15:46;;;;;;;5.22;1.45;;;;;;;18.88;49.91;99636.66;4775429;30;20094;-81
2023/07/25 14:18:49;;;;;;;5.22;1.83;;;;;;;19.28;50.91;99636.09;4786574;29;20066;-83
2023/07/25 14:22:07;;;;;;;7.65;1.77;;;;;;;20.32;47.92;99626.13;4785494;29;20050;-82
2023/07/25 14:25:12;;;;;;;6.05;1.38;;;;;;;20.95;47.23;99622.00;4786695;29;20061;-82
2023/07/25 14:28:15;;;;;;;5.75;1.75;;;;;;;21.13;46.60;99625.28;4786502;29;20057;-82
2023/07/25 14:31:18;;;;;;;5.85;1.30;;;;;;;20.33;46.98;99623.34;4786579;29;20109;-81
2023/07/25 14:34:23;;;;;;;4.55;1.40;;;;;;;19.92;47.48;99635.72;4786746;29;20115;-85
2023/07/25 14:37:27;;;;;;;5.25;1.60;;;;;;;19.47;47.42;99639.50;4786205;29;20074;-85
2023/07/25 14:40:30;;;;;;;5.78;1.67;;;;;;;19.27;49.51;99642.38;4775015;29;20054;-84
2023/07/25 14:43:34;;;;;;;4.80;1.25;;;;;;;19.31;49.14;99648.22;4786077;29;20130;-84
2023/07/25 14:46:37;;;;;;;5.70;1.85;;;;;;;19.21;50.24;99658.09;4785694;29;20054;-84
2023/07/25 14:50:07;;;;;;;5.90;1.48;;;;;;;18.94;51.21;99664.34;4786321;29;20058;-86
2023/07/25 14:53:16;;;;;;;4.47;1.00;;;;;;;18.84;51.21;99666.28;4786557;29;20459;-83
2023/07/25 14:56:19;;;;;;;7.15;1.67;;;;;;;18.97;53.02;99669.34;4786970;29;20058;-84
2023/07/25 14:59:23;;;;;;;3.42;1.20;;;;;;;19.11;53.31;99670.59;4804334;29;20129;-76
2023/07/25 15:02:26;;;;;;;3.38;1.30;;;;;;;18.91;51.70;99677.91;4804509;29;20073;-85
2023/07/25 15:05:30;;;;;;;5.70;1.67;;;;;;;19.21;52.34;99680.13;4804361;29;20048;-84
2023/07/25 15:08:33;;;;;;;4.57;1.30;;;;;;;19.25;50.70;99676.16;4802604;29;20096;-85
2023/07/25 15:11:37;;;;;;;6.22;1.20;;;;;;;19.47;50.87;99684.56;4802210;29;20107;-85
2023/07/25 15:14:40;;;;;;;6.32;1.42;;;;;;;19.24;50.83;99678.94;4804149;29;20054;-85
2023/07/25 15:21:27;;;;;;;;;;;;;;;18.98;52.21;99695.66;4804000;29;20217;-85
2023/07/25 15:24:31;;;;;;;8.18;2.17;;;;;;;18.85;52.44;99699.72;4805440;29;19978;-84
2023/07/25 15:27:48;;;;;;;5.72;1.35;;;;;;;18.48;52.86;99719.25;4807212;29;20586;-77
2023/07/25 15:30:54;;;;;;;6.20;2.25;;;;;;;18.48;53.05;99716.59;4806443;29;20413;-83
2023/07/25 15:33:57;;;;;;;10.18;2.17;;;;;;;18.49;53.88;99720.88;4806998;29;20054;-78
2023/07/25 15:37:01;;;;;;;5.85;1.73;;;;;;;18.35;53.42;99724.91;4807208;29;20413;-78
2023/07/25 15:40:07;;;;;;;8.55;1.88;;;;;;;18.22;54.21;99733.19;4807342;29;20489;-71